Time;durP1;ratioP1;P1;durP2;ratioP2;P2;SDS_P1;SDS_P2;PMS_P1;PMS_P2;Temp;Humidity;BMP_temperature;BMP_pressure;BME280_temperature;BME280_humidity;BME280_pressure;Samples;Min_cycle;Max_cycle;Signal;HPM_P1;HPM_P2
2022/03/18 00:02:22;;;;;;;10.90;8.20;;;3.80;92.60;;;3.55;62.57;96499.34;5025917;28;20468;-55
2022/03/18 00:04:50;;;;;;;8.70;7.23;;;3.80;92.30;;;3.56;62.21;96499.28;5027334;28;20496;-55
2022/03/18 00:07:20;;;;;;;8.13;7.00;;;3.70;92.30;;;3.55;62.26;96499.34;5039289;28;20524;-56
2022/03/18 00:09:47;;;;;;;8.43;7.30;;;3.70;92.20;;;3.54;62.89;96503.66;5040769;28;20498;-54
2022/03/18 00:12:15;;;;;;;7.73;6.50;;;3.80;92.60;;;3.52;63.09;96505.50;5028277;28;20464;-56
2022/03/18 00:14:42;;;;;;;7.37;6.50;;;3.70;92.60;;;3.54;62.89;96508.88;5034035;28;20459;-55
2022/03/18 00:17:10;;;;;;;9.60;6.00;;;3.80;92.90;;;3.55;62.80;96507.97;5034389;28;20464;-56
2022/03/18 00:19:38;;;;;;;6.50;5.90;;;3.80;92.90;;;3.55;63.15;96512.34;5045472;28;20458;-57
2022/03/18 00:22:06;;;;;;;6.13;5.53;;;3.70;92.80;;;3.55;63.52;96518.38;5032724;28;20452;-55
2022/03/18 00:24:35;;;;;;;9.13;6.97;;;3.80;93.00;;;3.55;62.88;96517.53;5035017;28;20460;-55
2022/03/18 00:27:02;;;;;;;8.83;7.10;;;3.80;92.60;;;3.56;63.74;96521.81;5034201;28;20495;-55
2022/03/18 00:29:30;;;;;;;7.60;6.40;;;3.70;93.10;;;3.56;63.21;96522.69;5040144;28;20784;-56
2022/03/18 00:31:57;;;;;;;6.57;5.97;;;3.80;93.00;;;3.57;63.18;96519.16;5031714;28;20522;-54
2022/03/18 00:34:25;;;;;;;10.90;7.77;;;3.80;93.00;;;3.61;63.05;96524.25;5030502;28;20476;-56
2022/03/18 00:36:53;;;;;;;7.63;6.83;;;3.80;92.90;;;3.62;62.82;96528.56;5035160;28;20455;-56
2022/03/18 00:39:20;;;;;;;11.60;6.80;;;3.80;92.70;;;3.62;62.97;96521.59;5037126;28;20476;-55
2022/03/18 00:41:49;;;;;;;8.80;7.90;;;3.80;92.90;;;3.66;63.24;96527.56;5039371;28;20461;-54
2022/03/18 00:44:16;;;;;;;14.83;8.67;;;3.80;92.90;;;3.69;62.61;96527.44;5035901;28;20480;-55
2022/03/18 00:46:43;;;;;;;12.37;7.30;;;3.90;92.70;;;3.69;62.69;96522.25;5036033;28;20989;-55
2022/03/18 00:52:05;;;;;;;10.03;8.50;;;3.90;92.30;;;3.64;62.00;96527.63;5040355;28;21069;-56
2022/03/18 00:54:34;;;;;;;9.53;7.20;;;3.80;92.00;;;3.59;62.10;96530.38;5028837;28;20488;-55
2022/03/18 00:57:02;;;;;;;10.03;7.40;;;3.80;92.00;;;3.60;62.47;96533.81;5035143;28;20469;-55
2022/03/18 00:59:30;;;;;;;11.17;7.60;;;3.80;92.20;;;3.59;62.02;96538.19;5035378;28;20483;-55
2022/03/18 01:01:57;;;;;;;11.33;8.10;;;3.80;91.90;;;3.59;61.86;96548.59;5044082;28;20451;-55
2022/03/18 01:04:25;;;;;;;10.70;6.90;;;3.80;92.00;;;3.62;61.78;96550.22;5031734;28;20518;-54
2022/03/18 01:06:53;;;;;;;9.30;8.00;;;3.80;92.40;;;3.63;61.70;96553.69;5030862;28;20499;-54
2022/03/18 01:09:21;;;;;;;11.47;7.43;;;3.80;91.70;;;3.60;60.96;96539.03;5035011;28;20560;-56
2022/03/18 01:11:49;;;;;;;9.00;7.73;;;3.80;91.50;;;3.56;60.86;96551.31;5040367;28;20841;-54
2022/03/18 01:14:18;;;;;;;8.40;7.23;;;3.80;91.40;;;3.52;61.80;96548.88;5037789;28;20563;-57
2022/03/18 01:16:45;;;;;;;8.10;7.27;;;3.70;91.40;;;3.47;61.72;96541.22;5031072;28;20486;-56
2022/03/18 01:19:13;;;;;;;9.57;7.60;;;3.70;91.30;;;3.45;61.76;96555.19;5036221;28;20479;-54
2022/03/18 01:21:40;;;;;;;12.80;8.60;;;3.70;91.40;;;3.42;61.32;96548.34;5038165;28;20513;-57
2022/03/18 01:24:08;;;;;;;19.67;7.83;;;3.60;91.50;;;3.39;61.60;96551.91;5033632;28;20961;-55
2022/03/18 01:26:35;;;;;;;8.30;7.43;;;3.60;91.50;;;3.36;60.36;96549.41;5031099;28;20524;-54
2022/03/18 01:29:02;;;;;;;12.93;7.83;;;3.60;90.90;;;3.30;60.67;96551.38;5035270;28;20543;-54
2022/03/18 01:31:31;;;;;;;10.47;7.37;;;3.50;90.50;;;3.27;61.07;96544.53;5033765;28;20453;-56
2022/03/18 01:33:58;;;;;;;15.53;7.73;;;3.50;90.60;;;3.21;59.07;96542.16;5040653;28;20490;-55
2022/03/18 01:36:26;;;;;;;9.47;7.80;;;3.40;89.80;;;3.16;60.48;96547.50;5027862;28;20864;-56
2022/03/18 01:38:53;;;;;;;7.63;6.90;;;3.40;90.10;;;3.15;59.91;96542.38;5033083;28;20476;-53
2022/03/18 01:41:21;;;;;;;13.13;7.47;;;3.40;90.40;;;3.17;60.52;96541.38;5032992;28;20460;-55
2022/03/18 01:43:48;;;;;;;13.93;7.43;;;3.30;90.20;;;3.16;59.58;96538.84;5042061;28;21023;-56
2022/03/18 01:46:16;;;;;;;12.07;7.60;;;3.40;89.40;;;3.15;59.27;96551.00;5033218;28;20980;-56
2022/03/18 01:48:45;;;;;;;11.47;6.57;;;3.40;89.70;;;3.14;59.89;96551.91;5032352;28;20477;-56
2022/03/18 01:51:15;;;;;;;9.10;7.30;;;3.40;89.40;;;3.15;59.97;96552.75;5036022;28;20553;-56
2022/03/18 01:53:43;;;;;;;15.03;6.60;;;3.30;89.80;;;3.13;59.62;96545.03;5042331;28;20861;-55
2022/03/18 01:56:11;;;;;;;9.10;7.50;;;3.30;88.60;;;3.13;59.41;96552.81;5032395;28;20461;-55
2022/03/18 01:58:38;;;;;;;11.27;6.90;;;3.40;89.70;;;3.16;60.12;96555.31;5032470;28;20488;-56
2022/03/18 02:01:05;;;;;;;8.27;6.83;;;3.40;89.60;;;3.16;59.02;96557.91;5036940;28;20448;-55
2022/03/18 02:03:32;;;;;;;10.33;7.20;;;3.40;88.70;;;3.16;59.12;96560.50;5033071;28;20734;-54
2022/03/18 02:06:01;;;;;;;9.00;6.53;;;3.40;88.20;;;3.16;59.30;96564.84;5033547;28;20453;-54
2022/03/18 02:08:28;;;;;;;10.43;8.13;;;3.40;88.70;;;3.14;59.17;96564.91;5024391;28;20489;-56
2022/03/18 02:10:56;;;;;;;8.93;8.03;;;3.40;88.80;;;3.15;58.84;96553.59;5031518;28;21118;-54
2022/03/18 02:13:23;;;;;;;12.47;7.87;;;3.40;88.70;;;3.15;59.51;96553.59;5037894;28;20496;-54
2022/03/18 02:15:50;;;;;;;10.17;7.23;;;3.40;88.70;;;3.15;58.64;96552.75;5029960;28;20489;-55
2022/03/18 02:18:17;;;;;;;7.40;6.67;;;3.30;88.60;;;3.13;58.78;96550.22;5031624;28;20507;-56
2022/03/18 02:20:45;;;;;;;11.23;7.67;;;3.30;88.10;;;3.12;58.50;96556.31;5030913;28;20455;-56
2022/03/18 02:23:13;;;;;;;13.33;7.77;;;3.30;88.50;;;3.06;58.73;96553.91;5039034;28;20625;-57
2022/03/18 02:25:41;;;;;;;11.00;7.27;;;3.30;88.10;;;3.09;59.51;96565.97;5039066;28;20820;-56
2022/03/18 02:28:08;;;;;;;11.00;7.57;;;3.30;88.60;;;3.08;58.97;96561.66;5029018;28;20520;-56
2022/03/18 02:30:35;;;;;;;9.90;6.93;;;3.30;88.60;;;3.07;58.84;96553.03;5031532;28;20456;-57
2022/03/18 02:33:03;;;;;;;11.07;7.30;;;3.30;89.10;;;3.13;59.53;96568.41;5033042;28;20847;-55
2022/03/18 02:35:31;;;;;;;9.00;7.60;;;3.30;89.10;;;3.17;59.22;96572.59;5039211;28;20460;-56
2022/03/18 02:37:58;;;;;;;12.63;7.07;;;3.40;89.50;;;3.20;59.19;96569.88;5030441;28;20488;-55
2022/03/18 02:40:27;;;;;;;8.77;6.93;;;3.40;88.90;;;3.23;58.83;96572.38;5033054;28;21284;-56
2022/03/18 02:42:55;;;;;;;8.07;6.87;;;3.40;88.40;;;3.25;59.21;96574.09;5033915;28;20480;-56
2022/03/18 02:45:22;;;;;;;8.43;6.30;;;3.40;88.70;;;3.25;57.63;96563.69;5039786;28;21062;-55
2022/03/18 02:47:49;;;;;;;11.57;6.27;;;3.50;87.10;;;3.22;58.66;96577.63;5032668;28;20496;-55
2022/03/18 02:50:17;;;;;;;12.30;6.73;;;3.40;87.50;;;3.19;57.94;96581.22;5023848;28;20544;-55
2022/03/18 02:52:44;;;;;;;9.90;6.30;;;3.40;86.70;;;3.13;58.54;96584.00;5036193;28;20846;-55
2022/03/18 02:55:12;;;;;;;10.40;6.50;;;3.40;86.60;;;3.07;58.76;96589.41;5038582;28;20463;-56
2022/03/18 02:57:41;;;;;;;11.77;6.90;;;3.30;87.50;;;3.05;58.87;96586.88;5035225;28;20559;-54
2022/03/18 03:00:10;;;;;;;10.57;6.70;;;3.30;88.00;;;3.03;58.50;96595.63;5033374;28;20456;-57
2022/03/18 03:02:37;;;;;;;8.23;5.47;;;3.30;88.00;;;3.01;58.35;96598.25;5031611;28;20487;-55
2022/03/18 03:08:01;;;;;;;10.77;6.93;;;3.20;88.20;;;2.95;59.29;96592.44;5039352;28;21037;-55
2022/03/18 03:10:29;;;;;;;9.40;5.70;;;3.20;88.00;;;2.89;58.80;96587.44;5028333;28;20452;-56
2022/03/18 03:12:59;;;;;;;12.90;6.30;;;3.10;88.40;;;2.88;58.63;96596.97;5030910;28;20577;-56
2022/03/18 03:15:26;;;;;;;7.33;5.53;;;3.10;88.40;;;2.85;58.63;96602.25;5038230;28;20468;-57
2022/03/18 03:17:54;;;;;;;7.37;5.60;;;3.10;88.40;;;2.80;59.50;96605.00;5037587;28;20492;-57
2022/03/18 03:20:21;;;;;;;6.60;5.93;;;3.10;88.40;;;2.78;59.15;96604.22;5021778;28;20479;-56
2022/03/18 03:22:48;;;;;;;14.37;7.57;;;3.00;88.80;;;2.76;59.52;96611.22;5028782;28;20518;-56
2022/03/18 03:25:16;;;;;;;7.67;6.83;;;3.00;89.00;;;2.78;59.22;96619.81;5033436;28;20830;-56
2022/03/18 03:27:43;;;;;;;6.87;6.17;;;3.00;89.20;;;2.76;59.43;96613.81;5032022;28;20881;-54
2022/03/18 03:30:13;;;;;;;6.40;5.80;;;3.00;89.00;;;2.72;59.08;96614.78;5020693;28;20462;-56
2022/03/18 03:32:40;;;;;;;6.30;5.10;;;3.00;88.90;;;2.69;60.18;96622.69;5027587;28;20538;-55
2022/03/18 03:35:08;;;;;;;9.80;6.87;;;3.00;89.00;;;2.64;59.37;96624.59;5033988;28;20464;-57
2022/03/18 03:37:36;;;;;;;8.00;5.77;;;2.90;89.50;;;2.63;60.38;96626.34;5037069;28;20482;-56
2022/03/18 03:40:03;;;;;;;6.67;5.87;;;2.90;89.50;;;2.64;59.49;96629.78;5030958;28;20651;-57
2022/03/18 03:42:30;;;;;;;7.43;6.20;;;2.90;89.30;;;2.61;59.76;96641.09;5028717;28;20487;-56
2022/03/18 03:44:58;;;;;;;6.07;5.47;;;2.90;89.50;;;2.61;59.54;96642.88;5032276;28;20472;-54
2022/03/18 03:47:26;;;;;;;8.97;5.83;;;2.80;88.90;;;2.60;59.88;96642.03;5034375;28;20492;-56
2022/03/18 03:49:54;;;;;;;6.60;5.63;;;2.80;89.20;;;2.60;59.48;96644.63;5034202;28;20459;-56
2022/03/18 03:52:21;;;;;;;6.10;5.50;;;2.80;88.30;;;2.53;59.17;96645.69;5029043;28;20449;-57
2022/03/18 03:54:48;;;;;;;5.77;5.27;;;2.80;88.10;;;2.48;59.79;96655.38;5028380;28;20996;-57
2022/03/18 03:57:15;;;;;;;6.33;5.23;;;2.70;88.40;;;2.43;59.85;96652.94;5031353;28;20460;-54
2022/03/18 03:59:43;;;;;;;6.93;5.97;;;2.70;89.40;;;2.43;58.79;96652.94;5032646;28;20460;-56
2022/03/18 04:02:10;;;;;;;6.50;5.70;;;2.70;89.70;;;2.39;60.37;96659.09;5029911;28;20466;-55
2022/03/18 04:04:39;;;;;;;10.27;6.20;;;2.60;89.00;;;2.36;60.71;96646.22;5029229;28;20483;-56
2022/03/18 04:07:07;;;;;;;5.67;5.07;;;2.60;89.30;;;2.41;59.83;96656.47;5036184;28;20543;-56
2022/03/18 04:09:36;;;;;;;11.07;7.40;;;2.70;90.00;;;2.41;60.15;96659.91;5033913;28;20447;-57
2022/03/18 04:12:04;;;;;;;12.73;9.80;;;2.70;90.00;;;2.41;59.69;96662.50;5031366;28;20576;-56
2022/03/18 04:14:31;;;;;;;27.03;11.30;;;2.60;90.00;;;2.41;60.74;96664.25;5029939;28;20457;-57
2022/03/18 04:16:59;;;;;;;25.80;13.20;;;2.60;90.30;;;2.40;60.30;96667.72;5025970;28;20460;-56
2022/03/18 04:19:26;;;;;;;25.10;12.97;;;2.70;90.50;;;2.40;61.01;96670.31;5031850;28;21090;-55
2022/03/18 04:21:55;;;;;;;11.10;8.90;;;2.60;90.50;;;2.42;60.58;96676.34;5027881;28;20649;-55
2022/03/18 04:24:22;;;;;;;10.57;8.30;;;2.70;90.70;;;2.44;60.87;96675.38;5029191;28;20487;-56
2022/03/18 04:26:50;;;;;;;9.20;8.20;;;2.70;90.60;;;2.45;60.96;96668.47;5029809;28;20460;-56
2022/03/18 04:29:17;;;;;;;12.40;8.57;;;2.70;90.40;;;2.43;60.98;96672.84;5036244;28;20503;-56
2022/03/18 04:31:45;;;;;;;12.97;9.50;;;2.70;90.70;;;2.44;61.05;96684.94;5029590;28;20524;-56
2022/03/18 04:34:12;;;;;;;13.90;9.40;;;2.70;91.30;;;2.46;62.26;96684.00;5027198;28;20472;-58
2022/03/18 04:36:40;;;;;;;15.33;10.70;;;2.70;91.40;;;2.48;62.80;96673.56;5025668;28;20459;-57
2022/03/18 04:39:08;;;;;;;16.77;10.43;;;2.70;91.70;;;2.47;62.47;96677.06;5029314;28;20952;-57
2022/03/18 04:41:36;;;;;;;12.00;9.63;;;2.70;91.40;;;2.48;61.36;96682.19;5033268;28;20990;-55
2022/03/18 04:44:03;;;;;;;12.10;9.50;;;2.70;91.30;;;2.49;62.75;96678.72;5026934;28;21002;-57
2022/03/18 04:46:31;;;;;;;12.00;9.90;;;2.80;91.80;;;2.57;61.80;96682.81;5025110;28;20832;-56
2022/03/18 04:48:59;;;;;;;11.77;9.07;;;2.80;91.80;;;2.62;63.00;96683.53;5029589;28;20484;-55
2022/03/18 04:51:26;;;;;;;16.40;10.63;;;2.90;92.20;;;2.65;62.38;96686.88;5033639;28;21062;-55
2022/03/18 04:53:53;;;;;;;14.10;8.77;;;2.90;91.80;;;2.70;61.20;96689.34;5030304;28;20479;-55
2022/03/18 04:59:07;;;;;;;11.27;6.37;;;2.90;91.10;;;2.71;61.89;96692.78;5035541;28;20448;-56
2022/03/18 05:01:34;;;;;;;15.73;7.97;;;3.00;91.10;;;2.71;61.42;96692.78;5039572;28;20462;-57
2022/03/18 05:04:01;;;;;;;15.53;8.40;;;2.90;91.00;;;2.71;61.43;96700.59;5026059;28;20484;-57
2022/03/18 05:06:29;;;;;;;11.27;7.27;;;2.90;90.80;;;2.71;61.73;96697.97;5030383;28;20456;-54
2022/03/18 05:08:56;;;;;;;8.63;7.77;;;2.90;91.00;;;2.74;60.50;96697.88;5035484;28;20495;-56
2022/03/18 05:11:25;;;;;;;8.43;7.07;;;2.90;90.90;;;2.79;60.63;96703.78;5038089;28;20451;-56
2022/03/18 05:13:52;;;;;;;8.67;7.33;;;3.00;91.00;;;2.84;60.31;96710.56;5031999;28;20501;-57
2022/03/18 05:16:20;;;;;;;10.07;7.40;;;3.10;90.60;;;2.89;60.66;96714.78;5032869;28;20992;-57
2022/03/18 05:18:47;;;;;;;20.50;6.97;;;3.10;90.60;;;2.91;60.14;96710.38;5036079;28;20912;-56
2022/03/18 05:21:14;;;;;;;12.60;8.67;;;3.10;90.30;;;2.89;59.92;96709.56;5040144;28;20460;-56
2022/03/18 05:23:41;;;;;;;13.33;7.37;;;3.10;90.10;;;2.85;60.65;96706.19;5041331;28;20851;-56
2022/03/18 05:26:09;;;;;;;8.83;8.03;;;3.10;90.10;;;2.82;60.17;96717.56;5030429;28;20453;-56
2022/03/18 05:28:38;;;;;;;11.47;9.27;;;3.10;90.00;;;2.78;60.01;96721.13;5034351;28;20501;-55
2022/03/18 05:31:05;;;;;;;11.37;8.87;;;3.00;90.00;;;2.77;60.46;96724.63;5039523;28;20506;-57
2022/03/18 05:33:32;;;;;;;12.17;8.57;;;3.00;90.10;;;2.80;59.54;96728.88;5038140;28;20543;-56
2022/03/18 05:35:59;;;;;;;35.77;13.07;;;3.00;90.10;;;2.80;59.88;96719.31;5028897;28;20456;-58
2022/03/18 05:38:27;;;;;;;11.30;8.67;;;3.00;90.10;;;2.82;59.58;96719.28;5033423;28;20557;-56
2022/03/18 05:40:54;;;;;;;14.27;8.80;;;3.00;89.90;;;2.82;59.39;96722.75;5037521;28;20920;-57
2022/03/18 05:43:21;;;;;;;14.30;7.50;;;3.00;89.60;;;2.79;59.24;96725.44;5038432;28;20487;-57
2022/03/18 05:45:50;;;;;;;11.53;8.63;;;3.10;89.60;;;2.80;60.15;96731.47;5031164;28;20460;-56
2022/03/18 05:48:18;;;;;;;14.50;8.33;;;3.00;90.00;;;2.83;60.25;96724.44;5027666;28;21008;-57
2022/03/18 05:50:45;;;;;;;14.00;8.37;;;3.00;90.10;;;2.87;59.46;96733.84;5034685;28;20456;-56
2022/03/18 05:53:12;;;;;;;14.07;9.10;;;3.10;90.00;;;2.91;60.15;96744.16;5032901;28;20481;-55
2022/03/18 05:58:24;;;;;;;14.67;10.27;;;3.20;89.70;;;2.95;59.10;96735.38;5028888;28;21016;-56
2022/03/18 06:00:53;;;;;;;28.77;11.47;;;3.20;89.70;;;2.98;59.06;96733.53;5034442;28;20459;-57
2022/03/18 06:03:20;;;;;;;19.03;10.10;;;3.20;89.70;;;3.01;59.32;96737.78;5036531;28;20475;-57
2022/03/18 06:05:48;;;;;;;17.90;10.60;;;3.20;90.00;;;3.06;59.45;96741.09;5035472;28;20563;-56
2022/03/18 06:13:45;;;;;;;30.20;8.70;;;3.50;90.10;;;3.52;58.58;96751.78;5036681;28;21006;-55
2022/03/18 06:16:13;;;;;;;11.23;8.10;;;3.60;89.00;;;3.62;58.06;96757.53;5034076;28;20506;-55
2022/03/18 06:18:41;;;;;;;19.47;8.27;;;3.80;88.40;;;3.67;57.99;96766.03;5028893;28;20995;-55
2022/03/18 06:21:08;;;;;;;12.50;8.87;;;3.80;88.00;;;3.71;58.29;96765.03;5033992;28;20464;-56
2022/03/18 06:23:35;;;;;;;12.27;8.90;;;3.90;87.50;;;3.82;57.82;96773.31;5038146;28;20873;-55
2022/03/18 06:26:02;;;;;;;16.80;9.10;;;4.00;87.80;;;3.92;57.40;96784.28;5036509;28;20484;-56
2022/03/18 06:28:30;;;;;;;13.00;8.07;;;4.10;85.90;;;4.00;56.95;96781.41;5024635;28;20492;-56
2022/03/18 06:30:58;;;;;;;12.97;7.90;;;4.20;86.20;;;4.05;57.56;96776.91;5032911;28;20459;-56
2022/03/18 06:33:27;;;;;;;8.77;6.67;;;4.20;86.10;;;4.09;56.82;96786.28;5036151;28;20472;-57
2022/03/18 06:35:55;;;;;;;12.27;8.10;;;4.20;85.70;;;4.10;56.36;96782.78;5039680;28;20456;-55
2022/03/18 06:38:22;;;;;;;8.73;6.63;;;4.30;84.60;;;4.08;56.49;96793.25;5033665;28;20925;-56
2022/03/18 06:40:50;;;;;;;11.70;8.20;;;4.30;84.10;;;4.00;55.95;96794.41;5032358;28;20460;-55
2022/03/18 06:43:17;;;;;;;11.40;7.10;;;4.20;83.80;;;3.95;55.68;96800.66;5036507;28;20475;-55
2022/03/18 06:45:44;;;;;;;10.07;7.17;;;4.20;83.40;;;3.84;55.35;96807.09;5039957;28;20482;-57
2022/03/18 06:48:12;;;;;;;9.90;7.80;;;4.10;82.50;;;3.78;55.59;96810.78;5033014;28;21033;-57
2022/03/18 06:50:40;;;;;;;15.30;8.67;;;4.00;82.60;;;3.75;55.78;96809.13;5027946;28;20568;-56
2022/03/18 06:53:08;;;;;;;15.37;8.40;;;4.00;82.70;;;3.73;55.75;96816.13;5036302;28;20472;-58
2022/03/18 06:55:35;;;;;;;12.53;7.30;;;3.90;81.90;;;3.67;54.64;96816.34;5038512;28;20506;-54
2022/03/18 06:58:03;;;;;;;6.93;6.03;;;3.90;80.60;;;3.65;54.42;96822.47;5038559;28;20560;-56
2022/03/18 07:00:30;;;;;;;13.27;7.00;;;3.90;79.80;;;3.59;54.80;96819.19;5029684;28;20985;-57
2022/03/18 07:02:58;;;;;;;12.00;6.60;;;3.80;79.00;;;3.63;53.67;96819.09;5031736;28;20555;-55
2022/03/18 07:05:27;;;;;;;16.60;7.53;;;3.80;78.80;;;3.79;54.30;96820.28;5038971;28;20498;-58
2022/03/18 07:07:56;;;;;;;7.40;6.70;;;4.00;78.80;;;4.12;53.91;96825.25;5038950;28;20467;-57
2022/03/18 07:10:23;;;;;;;7.17;6.47;;;4.20;79.70;;;4.52;52.87;96813.44;5029334;28;21169;-58
2022/03/18 07:12:50;;;;;;;9.10;5.60;;;4.60;77.70;;;4.96;52.95;96823.19;5034469;28;20464;-57
2022/03/18 07:15:18;;;;;;;7.80;5.67;;;5.00;78.50;;;5.37;50.65;96825.97;5037715;28;20458;-57
2022/03/18 07:17:58;;;;;;;5.37;4.43;;;5.40;74.30;;;5.74;50.78;96837.56;5040183;28;20482;-57
2022/03/18 07:20:26;;;;;;;11.80;6.10;;;5.70;73.70;;;6.10;50.54;96822.19;5031404;28;20841;-58
2022/03/18 07:23:03;;;;;;;9.07;5.57;;;6.10;73.30;;;6.37;48.89;96821.09;5032648;28;20476;-57
2022/03/18 07:25:30;;;;;;;5.43;4.93;;;6.30;69.60;;;6.66;47.87;96830.25;5035183;28;20451;-57
2022/03/18 07:27:58;;;;;;;9.73;5.90;;;6.70;68.20;;;7.08;46.42;96817.94;5041366;28;20559;-56
2022/03/18 07:30:25;;;;;;;8.97;6.00;;;7.00;64.90;;;7.55;48.12;96830.59;5029806;28;20517;-57
2022/03/18 07:32:52;;;;;;;5.97;5.40;;;7.50;68.00;;;7.90;46.44;96830.69;5030164;28;20477;-55
2022/03/18 07:35:20;;;;;;;9.40;5.87;;;7.80;63.30;;;8.32;46.92;96836.47;5034884;28;20445;-57
2022/03/18 07:37:48;;;;;;;11.40;4.43;;;8.20;64.80;;;8.71;47.12;96832.81;5038548;28;20475;-57
2022/03/18 07:40:17;;;;;;;10.33;5.43;;;8.60;66.80;;;9.19;46.60;96835.53;5029563;28;20471;-57
2022/03/18 07:42:45;;;;;;;8.67;5.53;;;9.00;65.00;;;9.68;44.68;96835.44;5030430;28;20468;-57
2022/03/18 07:45:13;;;;;;;5.47;4.97;;;9.50;61.20;;;10.20;42.88;96827.22;5034263;28;20460;-58
2022/03/18 07:47:40;;;;;;;6.07;4.83;;;10.10;57.00;;;10.73;43.81;96834.72;5034791;28;20484;-63
2022/03/18 07:50:09;;;;;;;4.70;4.30;;;10.60;57.50;;;11.08;40.11;96842.28;5039764;28;20495;-58
2022/03/18 07:52:36;;;;;;;20.10;6.27;;;11.10;51.50;;;11.19;42.07;96841.59;5028663;28;20615;-58
2022/03/18 07:55:04;;;;;;;7.43;5.40;;;11.40;53.50;;;11.39;41.35;96843.00;5033760;28;20460;-56
2022/03/18 07:57:33;;;;;;;9.10;6.07;;;11.70;53.00;;;11.64;38.41;96840.50;5038021;28;20472;-57
2022/03/18 08:00:00;;;;;;;6.27;5.53;;;11.90;48.70;;;11.92;41.37;96858.97;5038180;28;20457;-56
2022/03/18 08:02:27;;;;;;;7.23;5.70;;;12.20;52.40;;;12.18;40.10;96834.41;5024930;28;20483;-57
2022/03/18 08:04:55;;;;;;;6.43;5.73;;;12.50;50.80;;;12.48;38.82;96846.50;5031314;28;20829;-56
2022/03/18 08:07:22;;;;;;;7.10;5.13;;;12.70;48.60;;;12.51;38.62;96848.94;5036216;28;20478;-57
2022/03/18 08:09:49;;;;;;;20.63;5.97;;;12.80;48.20;;;12.51;37.39;96859.50;5034798;28;20529;-57
2022/03/18 08:12:17;;;;;;;8.20;5.33;;;12.80;45.90;;;12.41;36.69;96850.53;5031028;28;20472;-56
2022/03/18 08:14:45;;;;;;;7.70;5.43;;;12.70;45.70;;;12.12;38.04;96849.81;5030867;28;20456;-58
2022/03/18 08:17:12;;;;;;;6.87;5.77;;;12.60;47.20;;;12.00;38.75;96848.81;5034379;28;20502;-56
2022/03/18 08:19:40;;;;;;;6.60;5.40;;;12.40;48.00;;;12.13;38.01;96841.81;5040300;28;20455;-57
2022/03/18 08:22:07;;;;;;;6.17;5.57;;;12.40;46.80;;;12.33;37.43;96844.91;5019629;28;20525;-58
2022/03/18 08:24:35;;;;;;;8.17;5.33;;;12.50;46.60;;;12.54;37.06;96832.91;5030072;28;20572;-56
2022/03/18 08:27:02;;;;;;;7.47;5.97;;;12.70;46.60;;;12.65;35.27;96847.19;5033853;28;20985;-58
2022/03/18 08:29:30;;;;;;;16.83;6.03;;;12.80;44.10;;;12.53;36.06;96847.06;5036398;28;21050;-58
2022/03/18 08:31:59;;;;;;;11.17;5.80;;;12.90;44.30;;;12.47;35.74;96863.31;5041812;28;20513;-57
2022/03/18 08:34:26;;;;;;;12.93;5.87;;;12.80;43.60;;;12.22;35.67;96837.69;5032758;28;20854;-57
2022/03/18 08:36:53;;;;;;;6.30;5.70;;;12.60;43.30;;;11.98;36.58;96841.00;5036378;28;20449;-56
2022/03/18 08:39:21;;;;;;;11.40;5.90;;;12.40;44.30;;;11.80;34.87;96848.28;5040361;28;20475;-58
2022/03/18 08:41:48;;;;;;;10.70;5.93;;;12.10;42.20;;;11.54;35.17;96846.44;5043444;28;20452;-56
2022/03/18 08:44:19;;;;;;;7.03;6.30;;;11.90;42.50;;;11.07;35.26;96851.09;5026592;28;21032;-57
2022/03/18 08:46:46;;;;;;;7.20;4.83;;;11.50;42.10;;;10.77;35.88;96834.44;5032766;28;20463;-56
2022/03/18 08:49:15;;;;;;;8.10;5.00;;;11.10;43.00;;;10.61;36.28;96830.19;5040959;28;20499;-56
2022/03/18 08:51:43;;;;;;;8.13;5.30;;;10.90;43.60;;;10.44;36.38;96831.19;5040769;28;20456;-57
2022/03/18 08:54:10;;;;;;;27.30;6.60;;;10.70;43.70;;;10.18;36.64;96829.13;5029539;28;20526;-57
2022/03/18 08:56:37;;;;;;;6.87;5.70;;;10.40;43.90;;;9.95;35.20;96833.06;5034493;28;20488;-59
2022/03/18 08:59:06;;;;;;;9.00;7.23;;;10.10;42.90;;;9.97;36.86;96825.94;5037801;28;20479;-57
2022/03/18 09:01:34;;;;;;;13.33;5.80;;;10.10;44.40;;;10.10;36.00;96825.22;5039742;28;21040;-56
2022/03/18 09:04:01;;;;;;;14.13;5.50;;;10.10;43.70;;;10.21;36.49;96818.41;5036452;28;20855;-58
2022/03/18 09:06:30;;;;;;;6.17;5.20;;;10.20;44.10;;;10.23;35.17;96829.69;5033544;28;20460;-59
2022/03/18 09:09:02;;;;;;;5.93;5.37;;;10.20;43.30;;;10.26;36.35;96820.78;5029354;28;20491;-58
2022/03/18 09:11:29;;;;;;;7.17;5.70;;;10.20;44.20;;;10.46;35.90;96824.06;5039422;28;21173;-58
2022/03/18 09:13:57;;;;;;;7.23;5.07;;;10.40;43.50;;;10.54;34.72;96821.81;5037384;28;20478;-57
2022/03/18 09:16:24;;;;;;;5.90;4.80;;;10.50;42.40;;;10.59;35.07;96830.28;5028365;28;20459;-59
2022/03/18 09:18:51;;;;;;;7.87;5.97;;;10.50;43.30;;;10.57;34.67;96825.09;5035025;28;20477;-57
2022/03/18 09:21:19;;;;;;;8.33;6.50;;;10.50;42.30;;;10.37;34.98;96831.53;5037684;28;20452;-57
2022/03/18 09:23:47;;;;;;;7.50;6.00;;;10.40;42.00;;;10.08;35.01;96832.34;5043373;28;20490;-57
2022/03/18 09:26:15;;;;;;;9.13;6.00;;;10.20;42.40;;;9.82;35.06;96837.31;5030783;28;20920;-58
2022/03/18 09:28:42;;;;;;;7.03;6.20;;;9.90;42.70;;;9.55;35.89;96845.81;5034702;28;20467;-58
2022/03/18 09:31:09;;;;;;;8.47;6.03;;;9.70;43.50;;;9.34;35.73;96842.56;5038044;28;20452;-57
2022/03/18 09:33:36;;;;;;;15.47;6.57;;;9.50;43.90;;;9.28;36.11;96838.50;5036905;28;20492;-59
2022/03/18 09:36:05;;;;;;;7.10;6.10;;;9.40;44.10;;;9.32;36.63;96839.19;5027322;28;21023;-55
2022/03/18 09:38:32;;;;;;;10.37;6.00;;;9.40;45.70;;;9.21;36.13;96837.13;5031465;28;20550;-57
2022/03/18 09:41:00;;;;;;;6.93;6.23;;;9.30;44.90;;;9.26;34.22;96835.09;5038213;28;20463;-58
2022/03/18 09:43:33;;;;;;;5.87;5.20;;;9.30;42.30;;;9.42;36.08;96829.00;5041737;28;20476;-56
2022/03/18 09:46:00;;;;;;;18.60;5.97;;;9.40;45.00;;;9.56;34.61;96828.25;5037639;28;20456;-57
2022/03/18 09:48:27;;;;;;;11.50;6.50;;;9.50;43.90;;;9.43;35.58;96838.59;5032901;28;20480;-57
2022/03/18 09:50:55;;;;;;;12.73;5.97;;;9.50;44.10;;;9.28;35.78;96835.88;5036780;28;20488;-57
2022/03/18 09:53:22;;;;;;;7.20;5.60;;;9.40;44.10;;;9.24;36.03;96836.13;5038372;28;20525;-57
2022/03/18 09:55:51;;;;;;;11.07;5.30;;;9.30;44.00;;;9.07;35.83;96829.16;5027209;28;20457;-57
2022/03/18 09:58:20;;;;;;;6.47;5.80;;;9.20;43.40;;;8.80;36.15;96834.94;5029781;28;20472;-56
2022/03/18 10:00:47;;;;;;;12.60;6.30;;;9.00;44.70;;;8.59;36.12;96832.50;5035854;28;20463;-58
2022/03/18 10:03:16;;;;;;;11.97;5.80;;;8.80;44.50;;;8.50;36.72;96835.59;5037267;28;20892;-58
2022/03/18 10:05:50;;;;;;;8.63;5.67;;;8.70;45.20;;;8.42;36.18;96835.09;5037180;28;20533;-56
2022/03/18 10:08:21;;;;;;;7.83;5.53;;;8.60;44.90;;;8.33;36.95;96846.06;5030359;28;20472;-57
2022/03/18 10:10:49;;;;;;;6.37;5.77;;;8.40;45.80;;;8.09;35.96;96843.75;5032977;28;20553;-56
2022/03/18 10:13:16;;;;;;;7.60;5.93;;;8.20;43.50;;;7.94;37.24;96836.63;5039459;28;20472;-55
2022/03/18 10:15:46;;;;;;;13.37;5.87;;;8.10;45.00;;;7.88;37.14;96833.41;5041537;28;20460;-58
2022/03/18 10:18:14;;;;;;;8.60;5.40;;;8.00;45.20;;;7.84;35.04;96828.38;5028499;28;20468;-58
2022/03/18 10:20:42;;;;;;;5.37;4.93;;;8.00;43.30;;;7.83;34.50;96830.13;5032653;28;20487;-57
2022/03/18 10:23:21;;;;;;;11.53;6.20;;;8.00;43.00;;;7.92;35.13;96830.59;5035889;28;20548;-58
2022/03/18 10:25:51;;;;;;;8.07;6.10;;;8.00;43.30;;;8.05;35.75;96829.91;5040212;28;20802;-57
2022/03/18 10:28:35;;;;;;;9.07;5.70;;;8.10;43.70;;;8.35;37.16;96831.09;5032403;28;20575;-56
2022/03/18 10:31:16;;;;;;;8.33;6.47;;;8.30;45.90;;;8.50;35.19;96817.22;5030813;28;20482;-58
2022/03/18 10:39:25;;;;;;;8.53;6.17;;;8.90;45.70;;;9.13;36.40;96828.84;5027254;28;20474;-55
2022/03/18 10:41:52;;;;;;;7.00;5.70;;;9.10;44.80;;;9.31;32.67;96822.59;5032402;28;20449;-56
2022/03/18 10:44:19;;;;;;;8.43;5.17;;;9.30;41.30;;;9.48;35.62;96828.69;5035905;28;20488;-55
2022/03/18 10:46:49;;;;;;;7.70;5.40;;;9.50;44.00;;;9.64;35.67;96829.53;5034631;28;20526;-56
2022/03/18 10:49:17;;;;;;;6.50;5.90;;;9.60;44.00;;;9.77;33.17;96821.78;5023730;28;20531;-57
2022/03/18 10:51:44;;;;;;;8.10;6.57;;;9.70;42.60;;;9.76;33.75;96817.50;5031592;28;20452;-57
2022/03/18 10:54:11;;;;;;;6.60;5.67;;;9.80;41.60;;;9.78;34.51;96817.41;5034842;28;20482;-57